SondeTracker

Meteorological Radiosondes Database

Operations

Sounding was ended - last measurement: 2022-12-07 00:41:31z

MAP
About Radiosonde

Number: D22041007

Launch Site: Shreveport [LA] (US)

Type: DFM17

AUX: NO

Frequency: 403.010 MHz

Max Speed: 193 km/h at 31233 m

Average Speed: 93.46 km/h

Max Altitude: 31709 m

Average Ascent Speed: 5.40 m/s

Average Descent Speed: 0.00 m/s

Status: UNKNOWN

Status Changes
Launch Site Type AUX Frequency Status Finder Landing Point Description Changes made by
APRS Statistics

Received Frames: 171

First Frame [UTC]: 2022-12-06 23:04:17z

Last Frame [UTC]: 2022-12-07 00:41:31z

Receivers: KF5TYU-7

Flight Time: 01:37:14 h

Distance From First Measurement: 144.23 km

Nearest City: Claiborne [LA] (US) [14.39 km]

Nearest Hunter: Mark628 [92.11 km]

Ground Altitude: 36 m

Distance from QTH: 0.00 km

APRS Data
Receiver Number Date/Time [UTC] φ λ Course [°] Speed [km/h] Altitude [m] Description
KF5TYU-7D220410072022-12-07 00:41:3132.6209-92.31599317431709Clb=7.1m/s t=-44.7C h=-1.0% p=-1.0hPa 403.010 MHz Type=DFM17 Radiosonde
KF5TYU-7D220410072022-12-07 00:41:2932.6209-92.33129616131487Clb=7.4m/s t=-44.2C h=-1.0% p=-1.0hPa 403.010 MHz Type=DFM17 Radiosonde
KF5TYU-7D220410072022-12-07 00:41:2732.6207-92.34099617831354Clb=4.5m/s t=-43.6C h=-1.0% p=-1.0hPa 403.010 MHz Type=DFM17 Radiosonde
KF5TYU-7D220410072022-12-07 00:41:2632.6199-92.34969119331233Clb=2.9m/s t=-43.3C h=-1.0% p=-1.0hPa 403.010 MHz Type=DFM17 Radiosonde
KF5TYU-7D220410072022-12-07 00:40:0632.6138-92.41468815930311Clb=8.4m/s t=-38.8C h=-1.0% p=-1.0hPa 403.010 MHz Type=DFM17 Radiosonde
KF5TYU-7D220410072022-12-07 00:39:2132.6128-92.43069213030027Clb=6.4m/s t=-43.5C h=-1.0% p=-1.0hPa 403.010 MHz Type=DFM17 Radiosonde
KF5TYU-7D220410072022-12-07 00:37:4432.6115-92.44638615029737Clb=3.5m/s t=-43.1C h=-1.0% p=-1.0hPa 403.010 MHz Type=DFM17 Radiosonde
KF5TYU-7D220410072022-12-07 00:36:5032.6112-92.46058611929471Clb=8.3m/s t=-43.4C h=-1.0% p=-1.0hPa 403.010 MHz Type=DFM17 Radiosonde
KF5TYU-7D220410072022-12-07 00:35:5932.6107-92.46978610429305Clb=6.2m/s t=-43.6C h=-1.0% p=-1.0hPa 403.010 MHz Type=DFM17 Radiosonde
KF5TYU-7D220410072022-12-07 00:35:1032.6095-92.48118810729097Clb=7.2m/s t=-44.2C h=-1.0% p=-1.0hPa 403.010 MHz Type=DFM17 Radiosonde
KF5TYU-7D220410072022-12-07 00:34:2232.6079-92.49479011728842Clb=4.5m/s t=-45.3C h=-1.0% p=-1.0hPa 403.010 MHz Type=DFM17 Radiosonde
KF5TYU-7D220410072022-12-07 00:33:3032.6071-92.50057211528743Clb=6.3m/s t=-45.9C h=-1.0% p=-1.0hPa 403.010 MHz Type=DFM17 Radiosonde
KF5TYU-7D220410072022-12-07 00:32:3632.6055-92.51239412428539Clb=7.9m/s t=-48.1C h=-1.0% p=-1.0hPa 403.010 MHz Type=DFM17 Radiosonde
KF5TYU-7D220410072022-12-07 00:31:3932.6055-92.51999212228400Clb=4.4m/s t=-48.7C h=-1.0% p=-1.0hPa 403.010 MHz Type=DFM17 Radiosonde
KF5TYU-7D220410072022-12-07 00:30:4832.6054-92.53179313728171Clb=7.9m/s t=-49.9C h=-1.0% p=-1.0hPa 403.010 MHz Type=DFM17 Radiosonde
KF5TYU-7D220410072022-12-07 00:29:5632.6057-92.5405999628002Clb=5.7m/s t=-50.0C h=-1.0% p=-1.0hPa 403.010 MHz Type=DFM17 Radiosonde
KF5TYU-7D220410072022-12-07 00:29:0432.6046-92.55147410027774Clb=6.9m/s t=-36.2C h=-1.0% p=-1.0hPa 403.010 MHz Type=DFM17 Radiosonde
KF5TYU-7D220410072022-12-07 00:28:1232.6034-92.55977710227567Clb=7.8m/s t=-52.5C h=-1.0% p=-1.0hPa 403.010 MHz Type=DFM17 Radiosonde
KF5TYU-7D220410072022-12-07 00:27:4332.6016-92.6338727425877Clb=6.1m/s t=-56.7C h=-1.0% p=-1.0hPa 403.010 MHz Type=DFM17 Radiosonde
KF5TYU-7D220410072022-12-07 00:27:3432.6004-92.6399847025661Clb=7.3m/s t=-57.7C h=-1.0% p=-1.0hPa 403.010 MHz Type=DFM17 Radiosonde
KF5TYU-7D220410072022-12-07 00:27:0132.5998-92.6455778725457Clb=5.1m/s t=-58.4C h=-1.0% p=-1.0hPa 403.010 MHz Type=DFM17 Radiosonde
KF5TYU-7D220410072022-12-07 00:26:5932.5985-92.6503485225255Clb=7.2m/s t=-58.5C h=-1.0% p=-1.0hPa 403.010 MHz Type=DFM17 Radiosonde
KF5TYU-7D220410072022-12-07 00:26:5832.5961-92.6537485425050Clb=4.3m/s t=-58.9C h=-1.0% p=-1.0hPa 403.010 MHz Type=DFM17 Radiosonde
KF5TYU-7D220410072022-12-07 00:26:4532.5945-92.6573694424859Clb=5.8m/s t=-58.9C h=-1.0% p=-1.0hPa 403.010 MHz Type=DFM17 Radiosonde
KF5TYU-7D220410072022-12-07 00:25:5432.5943-92.6614965724685Clb=5.0m/s t=-58.3C h=-1.0% p=-1.0hPa 403.010 MHz Type=DFM17 Radiosonde
KF5TYU-7D220410072022-12-07 00:25:0332.5952-92.6666965224493Clb=5.3m/s t=-58.7C h=-1.0% p=-1.0hPa 403.010 MHz Type=DFM17 Radiosonde
KF5TYU-7D220410072022-12-07 00:24:1032.5958-92.6699781524346Clb=3.8m/s t=-59.2C h=-1.0% p=-1.0hPa 403.010 MHz Type=DFM17 Radiosonde
KF5TYU-7D220410072022-12-07 00:23:1632.5956-92.67341172824173Clb=5.1m/s t=-60.7C h=-1.0% p=-1.0hPa 403.010 MHz Type=DFM17 Radiosonde
KF5TYU-7D220410072022-12-07 00:22:2032.5963-92.6777955623986Clb=7.5m/s t=-60.3C h=-1.0% p=-1.0hPa 403.010 MHz Type=DFM17 Radiosonde
KF5TYU-7D220410072022-12-07 00:21:2732.5971-92.68231035223791Clb=7.6m/s t=-60.1C h=-1.0% p=-1.0hPa 403.010 MHz Type=DFM17 Radiosonde
KF5TYU-7D220410072022-12-07 00:20:3532.5982-92.68611222823590Clb=5.4m/s t=-59.6C h=-1.0% p=-1.0hPa 403.010 MHz Type=DFM17 Radiosonde
KF5TYU-7D220410072022-12-07 00:19:4132.5994-92.68911083123410Clb=6.1m/s t=-58.9C h=-1.0% p=-1.0hPa 403.010 MHz Type=DFM17 Radiosonde
KF5TYU-7D220410072022-12-07 00:18:4932.6001-92.69241002023238Clb=4.9m/s t=-60.8C h=-1.0% p=-1.0hPa 403.010 MHz Type=DFM17 Radiosonde
KF5TYU-7D220410072022-12-07 00:17:5532.6007-92.69591024423079Clb=5.2m/s t=-61.2C h=-1.0% p=-1.0hPa 403.010 MHz Type=DFM17 Radiosonde
KF5TYU-7D220410072022-12-07 00:16:5932.6002-92.6994693922933Clb=6.1m/s t=-61.8C h=-1.0% p=-1.0hPa 403.010 MHz Type=DFM17 Radiosonde
KF5TYU-7D220410072022-12-07 00:16:0532.5996-92.7022723022776Clb=5.3m/s t=-63.6C h=-1.0% p=-1.0hPa 403.010 MHz Type=DFM17 Radiosonde
KF5TYU-7D220410072022-12-07 00:15:1432.6003-92.70541143922614Clb=5.2m/s t=-64.9C h=-1.0% p=-1.0hPa 403.010 MHz Type=DFM17 Radiosonde
KF5TYU-7D220410072022-12-07 00:14:2032.5995-92.7088472822423Clb=5.4m/s t=-64.5C h=-1.0% p=-1.0hPa 403.010 MHz Type=DFM17 Radiosonde
KF5TYU-7D220410072022-12-07 00:13:2732.5984-92.7117292822243Clb=4.6m/s t=-64.2C h=-1.0% p=-1.0hPa 403.010 MHz Type=DFM17 Radiosonde
KF5TYU-7D220410072022-12-07 00:12:0632.597-92.7146861121903Clb=5.5m/s t=-64.9C h=-1.0% p=-1.0hPa 403.010 MHz Type=DFM17 Radiosonde
KF5TYU-7D220410072022-12-07 00:11:3832.5982-92.71691173721732Clb=4.8m/s t=-64.9C h=-1.0% p=-1.0hPa 403.010 MHz Type=DFM17 Radiosonde
KF5TYU-7D220410072022-12-07 00:11:0332.5999-92.71931403321564Clb=5.3m/s t=-65.1C h=-1.0% p=-1.0hPa 403.010 MHz Type=DFM17 Radiosonde
KF5TYU-7D220410072022-12-07 00:10:4832.6015-92.7221225021416Clb=4.1m/s t=-65.6C h=-1.0% p=-1.0hPa 403.010 MHz Type=DFM17 Radiosonde
KF5TYU-7D220410072022-12-07 00:10:3132.6023-92.7261874321271Clb=3.6m/s t=-65.2C h=-1.0% p=-1.0hPa 403.010 MHz Type=DFM17 Radiosonde
KF5TYU-7D220410072022-12-07 00:10:0232.6012-92.7309536521120Clb=4.1m/s t=-68.0C h=-1.0% p=-1.0hPa 403.010 MHz Type=DFM17 Radiosonde
KF5TYU-7D220410072022-12-07 00:09:5632.5989-92.7354493120959Clb=2.1m/s t=-68.6C h=-1.0% p=-1.0hPa 403.010 MHz Type=DFM17 Radiosonde
KF5TYU-7D220410072022-12-07 00:09:4832.5976-92.74785020793Clb=7.1m/s t=-68.6C h=-1.0% p=-1.0hPa 403.009 MHz Type=DFM17 Radiosonde
KF5TYU-7D220410072022-12-07 00:09:4732.5971-92.74461016320633Clb=5.9m/s t=-70.3C h=-1.0% p=-1.0hPa 403.010 MHz Type=DFM17 Radiosonde
KF5TYU-7D220410072022-12-07 00:09:4532.5964-92.7499797420461Clb=6.1m/s t=-72.1C h=-1.0% p=-1.0hPa 403.010 MHz Type=DFM17 Radiosonde
KF5TYU-7D220410072022-12-07 00:09:4332.5961-92.7549895720296Clb=6.1m/s t=-71.5C h=-1.0% p=-1.0hPa 403.010 MHz Type=DFM17 Radiosonde
KF5TYU-7D220410072022-12-07 00:09:4232.5967-92.76081126520142Clb=5.1m/s t=-71.0C h=-1.0% p=-1.0hPa 403.010 MHz Type=DFM17 Radiosonde
KF5TYU-7D220410072022-12-07 00:09:3732.598-92.7685939319993Clb=3.8m/s t=-72.1C h=-1.0% p=-1.0hPa 403.010 MHz Type=DFM17 Radiosonde
KF5TYU-7D220410072022-12-07 00:08:5532.5981-92.7767918919841Clb=5.8m/s t=-72.4C h=-1.0% p=-1.0hPa 403.010 MHz Type=DFM17 Radiosonde
KF5TYU-7D220410072022-12-07 00:08:0532.5975-92.7842827419677Clb=5.4m/s t=-71.3C h=-1.0% p=-1.0hPa 403.010 MHz Type=DFM17 Radiosonde
KF5TYU-7D220410072022-12-07 00:07:1432.597-92.7911846919509Clb=4.5m/s t=-72.3C h=-1.0% p=-1.0hPa 403.010 MHz Type=DFM17 Radiosonde
KF5TYU-7D220410072022-12-07 00:06:2132.5974-92.7981978719340Clb=6.7m/s t=-71.5C h=-1.0% p=-1.0hPa 403.010 MHz Type=DFM17 Radiosonde
KF5TYU-7D220410072022-12-07 00:05:2832.598-92.80541028919182Clb=5.9m/s t=-70.5C h=-1.0% p=-1.0hPa 403.010 MHz Type=DFM17 Radiosonde
KF5TYU-7D220410072022-12-07 00:04:3832.5988-92.8131949119034Clb=3.5m/s t=-69.8C h=-1.0% p=-1.0hPa 403.010 MHz Type=DFM17 Radiosonde
KF5TYU-7D220410072022-12-07 00:03:4732.5993-92.8208908318891Clb=3.8m/s t=-70.6C h=-1.0% p=-1.0hPa 403.010 MHz Type=DFM17 Radiosonde
KF5TYU-7D220410072022-12-07 00:02:5732.5985-92.8291849418755Clb=3.2m/s t=-70.6C h=-1.0% p=-1.0hPa 403.010 MHz Type=DFM17 Radiosonde
KF5TYU-7D220410072022-12-07 00:02:0632.5975-92.8375889618608Clb=4.5m/s t=-70.8C h=-1.0% p=-1.0hPa 403.010 MHz Type=DFM17 Radiosonde
KF5TYU-7D220410072022-12-07 00:01:1232.597-92.8456848918469Clb=6.0m/s t=-71.2C h=-1.0% p=-1.0hPa 403.010 MHz Type=DFM17 Radiosonde
KF5TYU-7D220410072022-12-07 00:00:1832.5955-92.85447310218309Clb=4.3m/s t=-71.8C h=-1.0% p=-1.0hPa 403.010 MHz Type=DFM17 Radiosonde
KF5TYU-7D220410072022-12-06 23:59:4032.593-92.8632739618149Clb=5.3m/s t=-71.3C h=-1.0% p=-1.0hPa 403.010 MHz Type=DFM17 Radiosonde
KF5TYU-7D220410072022-12-06 23:59:3832.5914-92.8714858717985Clb=5.5m/s t=-72.6C h=-1.0% p=-1.0hPa 403.010 MHz Type=DFM17 Radiosonde
KF5TYU-7D220410072022-12-06 23:59:3632.5902-92.8796848717829Clb=6.4m/s t=-72.1C h=-1.0% p=-1.0hPa 403.010 MHz Type=DFM17 Radiosonde
KF5TYU-7D220410072022-12-06 23:59:3432.59-92.8874918317676Clb=3.7m/s t=-71.8C h=-1.0% p=-1.0hPa 403.010 MHz Type=DFM17 Radiosonde
KF5TYU-7D220410072022-12-06 23:59:2232.5901-92.8968910017517Clb=5.2m/s t=-72.2C h=-1.0% p=-1.0hPa 403.010 MHz Type=DFM17 Radiosonde
KF5TYU-7D220410072022-12-06 23:59:0032.5897-92.90569510617359Clb=5.4m/s t=-73.4C h=-1.0% p=-1.0hPa 403.010 MHz Type=DFM17 Radiosonde
KF5TYU-7D220410072022-12-06 23:58:5932.5902-92.9156999817200Clb=5.1m/s t=-72.7C h=-1.0% p=-1.0hPa 403.010 MHz Type=DFM17 Radiosonde
KF5TYU-7D220410072022-12-06 23:58:4032.5907-92.9253969817050Clb=5.1m/s t=-71.7C h=-1.0% p=-1.0hPa 403.010 MHz Type=DFM17 Radiosonde
KF5TYU-7D220410072022-12-06 23:57:4932.5911-92.93589112216894Clb=5.9m/s t=-70.8C h=-1.0% p=-1.0hPa 403.010 MHz Type=DFM17 Radiosonde
KF5TYU-7D220410072022-12-06 23:56:5332.5901-92.94647212416695Clb=6.8m/s t=-70.8C h=-1.0% p=-1.0hPa 403.010 MHz Type=DFM17 Radiosonde
KF5TYU-7D220410072022-12-06 23:56:0032.587-92.95597911316522Clb=3.4m/s t=-70.0C h=-1.0% p=-1.0hPa 403.010 MHz Type=DFM17 Radiosonde
KF5TYU-7D220410072022-12-06 23:55:1032.5846-92.9667711716362Clb=4.8m/s t=-69.0C h=-1.0% p=-1.0hPa 403.010 MHz Type=DFM17 Radiosonde
KF5TYU-7D220410072022-12-06 23:54:2232.5831-92.97618211716203Clb=6.3m/s t=-69.3C h=-1.0% p=-1.0hPa 403.010 MHz Type=DFM17 Radiosonde
KF5TYU-7D220410072022-12-06 23:53:3232.5829-92.9869111116042Clb=6.5m/s t=-68.8C h=-1.0% p=-1.0hPa 403.010 MHz Type=DFM17 Radiosonde
KF5TYU-7D220410072022-12-06 23:52:4132.5833-92.99618710415884Clb=5.1m/s t=-68.7C h=-1.0% p=-1.0hPa 403.010 MHz Type=DFM17 Radiosonde
KF5TYU-7D220410072022-12-06 23:51:5432.5828-93.0067811315730Clb=4.7m/s t=-69.6C h=-1.0% p=-1.0hPa 403.010 MHz Type=DFM17 Radiosonde
KF5TYU-7D220410072022-12-06 23:51:2732.5814-93.01637610415577Clb=5.0m/s t=-69.2C h=-1.0% p=-1.0hPa 403.010 MHz Type=DFM17 Radiosonde
KF5TYU-7D220410072022-12-06 23:51:1532.5795-93.02667410415423Clb=5.6m/s t=-68.4C h=-1.0% p=-1.0hPa 403.010 MHz Type=DFM17 Radiosonde
KF5TYU-7D220410072022-12-06 23:50:5632.5777-93.03688210215270Clb=3.4m/s t=-67.4C h=-1.0% p=-1.0hPa 403.010 MHz Type=DFM17 Radiosonde
KF5TYU-7D220410072022-12-06 23:50:5532.5756-93.04717712215121Clb=5.8m/s t=-66.8C h=-1.0% p=-1.0hPa 403.010 MHz Type=DFM17 Radiosonde
KF5TYU-7D220410072022-12-06 23:50:5332.5742-93.05717912014973Clb=3.1m/s t=-66.2C h=-1.0% p=-1.0hPa 403.010 MHz Type=DFM17 Radiosonde
KF5TYU-7D220410072022-12-06 23:50:5232.573-93.06848712614828Clb=5.2m/s t=-67.1C h=-1.0% p=-1.0hPa 403.010 MHz Type=DFM17 Radiosonde
KF5TYU-7D220410072022-12-06 23:50:3432.5724-93.07938812614683Clb=3.9m/s t=-67.4C h=-1.0% p=-1.0hPa 403.010 MHz Type=DFM17 Radiosonde
KF5TYU-7D220410072022-12-06 23:49:4732.571-93.09228013014521Clb=6.1m/s t=-67.6C h=-1.0% p=-1.0hPa 403.010 MHz Type=DFM17 Radiosonde
KF5TYU-7D220410072022-12-06 23:48:5832.5694-93.10357912414377Clb=5.4m/s t=-67.2C h=-1.0% p=-1.0hPa 403.010 MHz Type=DFM17 Radiosonde
KF5TYU-7D220410072022-12-06 23:48:1132.5683-93.11528414314229Clb=5.2m/s t=-68.5C h=-1.0% p=-1.0hPa 403.010 MHz Type=DFM17 Radiosonde
KF5TYU-7D220410072022-12-06 23:47:2932.5675-93.12818313014083Clb=4.6m/s t=-68.6C h=-1.0% p=-1.0hPa 403.010 MHz Type=DFM17 Radiosonde
KF5TYU-7D220410072022-12-06 23:46:3732.5665-93.14258215413939Clb=5.5m/s t=-68.4C h=-1.0% p=-1.0hPa 403.010 MHz Type=DFM17 Radiosonde
KF5TYU-7D220410072022-12-06 23:45:4732.565-93.15718215613790Clb=3.7m/s t=-67.4C h=-1.0% p=-1.0hPa 403.010 MHz Type=DFM17 Radiosonde
KF5TYU-7D220410072022-12-06 23:44:5832.5631-93.17078115713649Clb=4.5m/s t=-66.7C h=-1.0% p=-1.0hPa 403.010 MHz Type=DFM17 Radiosonde
KF5TYU-7D220410072022-12-06 23:44:1132.561-93.18428014813492Clb=4.1m/s t=-65.5C h=-1.0% p=-1.0hPa 403.010 MHz Type=DFM17 Radiosonde
KF5TYU-7D220410072022-12-06 23:43:3732.5596-93.1978413113326Clb=6.0m/s t=-64.1C h=-1.0% p=-1.0hPa 403.010 MHz Type=DFM17 Radiosonde
KF5TYU-7D220410072022-12-06 23:43:2532.5583-93.20918913013173Clb=6.1m/s t=-63.0C h=-1.0% p=-1.0hPa 403.010 MHz Type=DFM17 Radiosonde
KF5TYU-7D220410072022-12-06 23:43:0132.5581-93.222310015012956Clb=4.0m/s t=-62.2C h=-1.0% p=-1.0hPa 403.010 MHz Type=DFM17 Radiosonde
KF5TYU-7D220410072022-12-06 23:42:5932.5599-93.234810014112818Clb=3.7m/s t=-61.9C h=-1.0% p=-1.0hPa 403.010 MHz Type=DFM17 Radiosonde
KF5TYU-7D220410072022-12-06 23:42:1932.5618-93.24769613712700Clb=4.5m/s t=-62.1C h=-1.0% p=-1.0hPa 403.010 MHz Type=DFM17 Radiosonde
KF5TYU-7D220410072022-12-06 23:41:3132.5626-93.25969213112558Clb=3.3m/s t=-61.3C h=-1.0% p=-1.0hPa 403.010 MHz Type=DFM17 Radiosonde
KF5TYU-7D220410072022-12-06 23:40:4532.563-93.27128912412387Clb=6.1m/s t=-60.1C h=-1.0% p=-1.0hPa 403.010 MHz Type=DFM17 Radiosonde
KF5TYU-7D220410072022-12-06 23:40:0032.5629-93.28278411912174Clb=5.1m/s t=-58.4C h=-1.0% p=-1.0hPa 403.010 MHz Type=DFM17 Radiosonde
KF5TYU-7D220410072022-12-06 23:39:2932.5622-93.29278211112013Clb=6.3m/s t=-57.1C h=-1.0% p=-1.0hPa 403.010 MHz Type=DFM17 Radiosonde
KF5TYU-7D220410072022-12-06 23:38:5832.5614-93.30368511111848Clb=4.1m/s t=-55.7C h=-1.0% p=-1.0hPa 403.010 MHz Type=DFM17 Radiosonde
KF5TYU-7D220410072022-12-06 23:38:2732.5608-93.31388811511691Clb=4.0m/s t=-54.4C h=-1.0% p=-1.0hPa 403.010 MHz Type=DFM17 Radiosonde
KF5TYU-7D220410072022-12-06 23:38:1532.56-93.32458110911537Clb=5.8m/s t=-53.3C h=-1.0% p=-1.0hPa 403.010 MHz Type=DFM17 Radiosonde
KF5TYU-7D220410072022-12-06 23:38:0232.5587-93.33477911311396Clb=5.4m/s t=-52.1C h=-1.0% p=-1.0hPa 403.010 MHz Type=DFM17 Radiosonde
KF5TYU-7D220410072022-12-06 23:37:1532.5573-93.34518212211240Clb=3.7m/s t=-50.8C h=-1.0% p=-1.0hPa 403.010 MHz Type=DFM17 Radiosonde
KF5TYU-7D220410072022-12-06 23:36:2832.5554-93.35568111111065Clb=3.5m/s t=-49.5C h=-1.0% p=-1.0hPa 403.010 MHz Type=DFM17 Radiosonde
KF5TYU-7D220410072022-12-06 23:35:5132.5533-93.36627411710924Clb=5.5m/s t=-48.2C h=-1.0% p=-1.0hPa 403.010 MHz Type=DFM17 Radiosonde
KF5TYU-7D220410072022-12-06 23:35:2032.5509-93.37737411510771Clb=5.5m/s t=-47.0C h=-1.0% p=-1.0hPa 403.010 MHz Type=DFM17 Radiosonde
KF5TYU-7D220410072022-12-06 23:34:4932.5486-93.38747311310640Clb=3.6m/s t=-45.8C h=-1.0% p=-1.0hPa 403.010 MHz Type=DFM17 Radiosonde
KF5TYU-7D220410072022-12-06 23:34:1832.5462-93.39797412210505Clb=4.3m/s t=-44.7C h=-1.0% p=-1.0hPa 403.010 MHz Type=DFM17 Radiosonde
KF5TYU-7D220410072022-12-06 23:33:4932.5437-93.40837211910364Clb=5.2m/s t=-43.6C h=-1.0% p=-1.0hPa 403.010 MHz Type=DFM17 Radiosonde
KF5TYU-7D220410072022-12-06 23:33:4132.5412-93.41897211910214Clb=3.9m/s t=-42.4C h=-1.0% p=-1.0hPa 403.010 MHz Type=DFM17 Radiosonde
KF5TYU-7D220410072022-12-06 23:33:0132.5393-93.43068213110056Clb=4.0m/s t=-41.4C h=-1.0% p=-1.0hPa 403.010 MHz Type=DFM17 Radiosonde
KF5TYU-7D220410072022-12-06 23:32:1832.5378-93.4417801289918Clb=4.7m/s t=-40.7C h=-1.0% p=-1.0hPa 403.010 MHz Type=DFM17 Radiosonde
KF5TYU-7D220410072022-12-06 23:31:4332.5364-93.4531801209777Clb=3.4m/s t=-39.9C h=-1.0% p=-1.0hPa 403.010 MHz Type=DFM17 Radiosonde
KF5TYU-7D220410072022-12-06 23:31:1232.5352-93.4647861309633Clb=4.1m/s t=-38.8C h=-1.0% p=-1.0hPa 403.010 MHz Type=DFM17 Radiosonde
KF5TYU-7D220410072022-12-06 23:30:4132.5342-93.4763791269479Clb=4.8m/s t=-37.5C h=-1.0% p=-1.0hPa 403.010 MHz Type=DFM17 Radiosonde
KF5TYU-7D220410072022-12-06 23:30:1032.5333-93.487791159331Clb=5.1m/s t=-36.3C h=-1.0% p=-1.0hPa 403.010 MHz Type=DFM17 Radiosonde
KF5TYU-7D220410072022-12-06 23:29:3932.5325-93.498831229169Clb=5.7m/s t=-35.1C h=-1.0% p=-1.0hPa 403.010 MHz Type=DFM17 Radiosonde
KF5TYU-7D220410072022-12-06 23:29:1832.5318-93.5101861269004Clb=3.9m/s t=-33.9C h=-1.0% p=-1.0hPa 403.010 MHz Type=DFM17 Radiosonde
KF5TYU-7D220410072022-12-06 23:28:4332.5314-93.5202851248866Clb=4.1m/s t=-32.6C h=-1.0% p=-1.0hPa 403.010 MHz Type=DFM17 Radiosonde
KF5TYU-7D220410072022-12-06 23:28:0532.5306-93.5315871248699Clb=3.5m/s t=-31.3C h=-1.0% p=-1.0hPa 403.010 MHz Type=DFM17 Radiosonde
KF5TYU-7D220410072022-12-06 23:27:3432.5299-93.5422801248548Clb=3.8m/s t=-30.1C h=-1.0% p=-1.0hPa 403.010 MHz Type=DFM17 Radiosonde
KF5TYU-7D220410072022-12-06 23:27:0332.5288-93.5532811228365Clb=6.5m/s t=-28.6C h=-1.0% p=-1.0hPa 403.010 MHz Type=DFM17 Radiosonde
KF5TYU-7D220410072022-12-06 23:26:3232.527-93.5648761158154Clb=5.3m/s t=-27.1C h=-1.0% p=-1.0hPa 403.010 MHz Type=DFM17 Radiosonde
KF5TYU-7D220410072022-12-06 23:26:0132.5257-93.5745791068000Clb=4.8m/s t=-26.2C h=-1.0% p=-1.0hPa 403.010 MHz Type=DFM17 Radiosonde
KF5TYU-7D220410072022-12-06 23:25:3132.5246-93.5832831157857Clb=4.7m/s t=-25.1C h=-1.0% p=-1.0hPa 403.010 MHz Type=DFM17 Radiosonde
KF5TYU-7D220410072022-12-06 23:25:0832.5231-93.5925811157677Clb=7.8m/s t=-23.8C h=-1.0% p=-1.0hPa 403.010 MHz Type=DFM17 Radiosonde
KF5TYU-7D220410072022-12-06 23:24:3232.5219-93.6013861097488Clb=6.0m/s t=-22.6C h=-1.0% p=-1.0hPa 403.010 MHz Type=DFM17 Radiosonde
KF5TYU-7D220410072022-12-06 23:23:5732.5205-93.610276947312Clb=7.0m/s t=-21.2C h=-1.0% p=-1.0hPa 403.010 MHz Type=DFM17 Radiosonde
KF5TYU-7D220410072022-12-06 23:23:2632.5189-93.6187841007172Clb=5.4m/s t=-20.1C h=-1.0% p=-1.0hPa 403.010 MHz Type=DFM17 Radiosonde
KF5TYU-7D220410072022-12-06 23:22:5532.5169-93.627462936984Clb=5.4m/s t=-18.9C h=-1.0% p=-1.0hPa 403.010 MHz Type=DFM17 Radiosonde
KF5TYU-7D220410072022-12-06 23:22:2432.5146-93.6355781176773Clb=7.1m/s t=-17.8C h=-1.0% p=-1.0hPa 403.010 MHz Type=DFM17 Radiosonde
KF5TYU-7D220410072022-12-06 23:21:5332.5119-93.644165806533Clb=7.0m/s t=-16.6C h=-1.0% p=-1.0hPa 403.010 MHz Type=DFM17 Radiosonde
KF5TYU-7D220410072022-12-06 23:21:2232.5098-93.65261836322Clb=6.4m/s t=-15.1C h=-1.0% p=-1.0hPa 403.010 MHz Type=DFM17 Radiosonde
KF5TYU-7D220410072022-12-06 23:20:5332.5076-93.659880966095Clb=8.9m/s t=-13.6C h=-1.0% p=-1.0hPa 403.010 MHz Type=DFM17 Radiosonde
KF5TYU-7D220410072022-12-06 23:20:2032.5055-93.667283855893Clb=4.8m/s t=-12.2C h=-1.0% p=-1.0hPa 403.010 MHz Type=DFM17 Radiosonde
KF5TYU-7D220410072022-12-06 23:19:4932.5036-93.674862815691Clb=7.9m/s t=-11.4C h=-1.0% p=-1.0hPa 403.010 MHz Type=DFM17 Radiosonde
KF5TYU-7D220410072022-12-06 23:19:1732.5019-93.6828711065489Clb=4.8m/s t=-10.0C h=-1.0% p=-1.0hPa 403.010 MHz Type=DFM17 Radiosonde
KF5TYU-7D220410072022-12-06 23:18:4632.5-93.691801065307Clb=5.2m/s t=-9.0C h=-1.0% p=-1.0hPa 403.010 MHz Type=DFM17 Radiosonde
KF5TYU-7D220410072022-12-06 23:18:1532.4983-93.699478815119Clb=5.3m/s t=-7.9C h=-1.0% p=-1.0hPa 403.010 MHz Type=DFM17 Radiosonde
KF5TYU-7D220410072022-12-06 23:17:4432.4968-93.707880934944Clb=7.4m/s t=-7.6C h=-1.0% p=-1.0hPa 403.010 MHz Type=DFM17 Radiosonde
KF5TYU-7D220410072022-12-06 23:17:1332.4958-93.71671854757Clb=7.0m/s t=-6.0C h=-1.0% p=-1.0hPa 403.010 MHz Type=DFM17 Radiosonde
KF5TYU-7D220410072022-12-06 23:16:4232.4949-93.724691964565Clb=5.1m/s t=-4.4C h=-1.0% p=-1.0hPa 403.010 MHz Type=DFM17 Radiosonde
KF5TYU-7D220410072022-12-06 23:16:1132.4943-93.732391964392Clb=5.2m/s t=-3.7C h=-1.0% p=-1.0hPa 403.010 MHz Type=DFM17 Radiosonde
KF5TYU-7D220410072022-12-06 23:15:4032.4937-93.739585854219Clb=5.9m/s t=-2.3C h=-1.0% p=-1.0hPa 403.010 MHz Type=DFM17 Radiosonde
KF5TYU-7D220410072022-12-06 23:15:0932.4928-93.746376854020Clb=5.9m/s t=-0.6C h=-1.0% p=-1.0hPa 403.010 MHz Type=DFM17 Radiosonde
KF5TYU-7D220410072022-12-06 23:14:3832.4918-93.752468743835Clb=5.5m/s t=0.9C h=-1.0% p=-1.0hPa 403.010 MHz Type=DFM17 Radiosonde
KF5TYU-7D220410072022-12-06 23:14:0732.4903-93.759376833659Clb=6.5m/s t=2.1C h=-1.0% p=-1.0hPa 403.010 MHz Type=DFM17 Radiosonde
KF5TYU-7D220410072022-12-06 23:13:3632.4888-93.765782813480Clb=5.3m/s t=3.7C h=-1.0% p=-1.0hPa 403.010 MHz Type=DFM17 Radiosonde
KF5TYU-7D220410072022-12-06 23:13:0532.4871-93.77278803306Clb=4.0m/s t=4.9C h=-1.0% p=-1.0hPa 403.010 MHz Type=DFM17 Radiosonde
KF5TYU-7D220410072022-12-06 23:12:3432.4855-93.778363763124Clb=4.9m/s t=6.4C h=-1.0% p=-1.0hPa 403.010 MHz Type=DFM17 Radiosonde
KF5TYU-7D220410072022-12-06 23:12:0232.484-93.784984632935Clb=4.0m/s t=8.1C h=-1.0% p=-1.0hPa 403.010 MHz Type=DFM17 Radiosonde
KF5TYU-7D220410072022-12-06 23:11:3132.4829-93.79174442759Clb=6.7m/s t=9.4C h=-1.0% p=-1.0hPa 403.010 MHz Type=DFM17 Radiosonde
KF5TYU-7D220410072022-12-06 23:11:0032.4812-93.796166522572Clb=6.3m/s t=10.5C h=-1.0% p=-1.0hPa 403.010 MHz Type=DFM17 Radiosonde
KF5TYU-7D220410072022-12-06 23:10:2932.4802-93.80189482390Clb=8.2m/s t=12.2C h=-1.0% p=-1.0hPa 403.010 MHz Type=DFM17 Radiosonde
KF5TYU-7D220410072022-12-06 23:09:5832.4789-93.805482572196Clb=6.8m/s t=13.8C h=-1.0% p=-1.0hPa 403.010 MHz Type=DFM17 Radiosonde
KF5TYU-7D220410072022-12-06 23:09:2732.4779-93.811172331964Clb=4.7m/s t=15.5C h=-1.0% p=-1.0hPa 403.010 MHz Type=DFM17 Radiosonde
KF5TYU-7D220410072022-12-06 23:08:5632.4769-93.813965331845Clb=6.8m/s t=16.7C h=-1.0% p=-1.0hPa 403.010 MHz Type=DFM17 Radiosonde
KF5TYU-7D220410072022-12-06 23:08:2532.4753-93.817758281665Clb=4.7m/s t=14.9C h=-1.0% p=-1.0hPa 403.010 MHz Type=DFM17 Radiosonde
KF5TYU-7D220410072022-12-06 23:07:5432.4727-93.821250741478Clb=6.6m/s t=13.1C h=-1.0% p=-1.0hPa 403.010 MHz Type=DFM17 Radiosonde
KF5TYU-7D220410072022-12-06 23:07:2332.4697-93.825240631295Clb=6.0m/s t=14.5C h=-1.0% p=-1.0hPa 403.010 MHz Type=DFM17 Radiosonde
KF5TYU-7D220410072022-12-06 23:06:5232.4669-93.829141441113Clb=6.7m/s t=15.7C h=-1.0% p=-1.0hPa 403.010 MHz Type=DFM17 Radiosonde
KF5TYU-7D220410072022-12-06 23:06:2132.4641-93.83323450946Clb=4.6m/s t=16.8C h=-1.0% p=-1.0hPa 403.010 MHz Type=DFM17 Radiosonde
KF5TYU-7D220410072022-12-06 23:05:5032.461-93.83694233763Clb=5.9m/s t=17.8C h=-1.0% p=-1.0hPa 403.010 MHz Type=DFM17 Radiosonde
KF5TYU-7D220410072022-12-06 23:05:2032.4584-93.83943752585Clb=4.5m/s t=19.2C h=-1.0% p=-1.0hPa 403.010 MHz Type=DFM17 Radiosonde
KF5TYU-7D220410072022-12-06 23:04:4832.4553-93.8413443393Clb=5.8m/s t=20.7C h=-1.0% p=-1.0hPa 403.010 MHz Type=DFM17 Radiosonde
KF5TYU-7D220410072022-12-06 23:04:1732.4532-93.84162624222Clb=5.3m/s t=22.1C h=-1.0% p=-1.0hPa 403.010 MHz Type=DFM17 Radiosonde